createdAt,value
2023-04-08T00:00:56.312Z,7.90
2023-04-08T00:03:24.128Z,7.90
2023-04-08T00:05:51.518Z,7.90
2023-04-08T00:08:18.762Z,7.80
2023-04-08T00:10:46.155Z,7.40
2023-04-08T00:13:13.788Z,7.20
2023-04-08T00:15:41.890Z,7.50
2023-04-08T00:18:09.150Z,7.30
2023-04-08T00:20:36.394Z,7.50
2023-04-08T00:23:03.670Z,7.10
2023-04-08T00:25:31.770Z,7.40
2023-04-08T00:27:58.950Z,7.60
2023-04-08T00:30:27.489Z,7.40
2023-04-08T00:32:55.174Z,7.30
2023-04-08T00:35:22.458Z,7.00
2023-04-08T00:37:49.953Z,7.00
2023-04-08T00:40:17.416Z,7.20
2023-04-08T00:42:44.685Z,7.20
2023-04-08T00:45:12.021Z,6.90
2023-04-08T00:47:39.864Z,6.90
2023-04-08T00:50:10.911Z,6.90
2023-04-08T00:52:38.192Z,6.90
2023-04-08T00:55:06.315Z,7.30
2023-04-08T00:57:33.989Z,7.20
2023-04-08T01:00:01.495Z,7.20
2023-04-08T01:02:47.256Z,7.40
2023-04-08T01:05:25.986Z,7.30
2023-04-08T01:07:53.222Z,7.20
2023-04-08T01:10:31.517Z,7.20
2023-04-08T01:13:04.028Z,7.30
2023-04-08T01:15:33.640Z,7.30
2023-04-08T01:18:03.221Z,7.30
2023-04-08T01:20:30.848Z,7.00
2023-04-08T01:23:01.395Z,7.30
2023-04-08T01:25:32.752Z,7.20
2023-04-08T01:28:03.423Z,7.30
2023-04-08T01:30:32.561Z,7.20
2023-04-08T01:34:02.054Z,7.10
2023-04-08T01:36:29.811Z,7.20
2023-04-08T01:38:56.945Z,7.60
2023-04-08T01:41:24.446Z,7.50
2023-04-08T01:43:54.064Z,7.50
2023-04-08T01:46:21.829Z,7.50
2023-04-08T01:48:50.270Z,7.10
2023-04-08T01:51:18.197Z,7.20
2023-04-08T01:53:45.587Z,7.30
2023-04-08T01:56:14.486Z,7.10
2023-04-08T01:58:53.081Z,7.20
2023-04-08T02:01:23.076Z,7.10
2023-04-08T02:03:53.765Z,7.10
2023-04-08T02:06:20.982Z,7.20
2023-04-08T02:08:48.965Z,7.50
2023-04-08T02:11:16.539Z,7.50
2023-04-08T02:13:43.653Z,7.50
2023-04-08T02:16:18.592Z,7.50
2023-04-08T02:18:54.247Z,7.60
2023-04-08T02:21:27.919Z,7.20
2023-04-08T02:23:57.862Z,7.40
2023-04-08T02:26:26.249Z,7.50
2023-04-08T02:28:57.893Z,7.10
2023-04-08T02:31:26.610Z,7.20
2023-04-08T02:33:54.694Z,7.40
2023-04-08T02:36:22.497Z,7.20
2023-04-08T02:38:50.412Z,7.30
2023-04-08T02:41:17.711Z,7.20
2023-04-08T02:43:44.809Z,7.10
2023-04-08T02:46:12.209Z,7.30
2023-04-08T02:48:39.346Z,7.40
2023-04-08T02:51:06.509Z,7.40
2023-04-08T02:53:33.641Z,7.40
2023-04-08T02:56:00.817Z,7.10
2023-04-08T02:58:27.905Z,7.30
2023-04-08T03:00:55.114Z,7.30
2023-04-08T03:03:29.483Z,7.30
2023-04-08T03:05:57.972Z,7.10
2023-04-08T03:08:25.173Z,7.20
2023-04-08T03:10:52.501Z,7.30
2023-04-08T03:13:19.632Z,7.30
2023-04-08T03:15:46.888Z,7.40
2023-04-08T03:18:14.224Z,7.40
2023-04-08T03:20:41.339Z,7.40
2023-04-08T03:23:08.551Z,7.40
2023-04-08T03:25:35.700Z,7.30
2023-04-08T03:28:02.795Z,7.30
2023-04-08T03:30:30.039Z,7.10
2023-04-08T03:44:24.810Z,6.90
2023-04-08T03:46:51.849Z,6.90
2023-04-08T03:49:19.021Z,6.60
2023-04-08T03:51:46.130Z,6.60
2023-04-08T03:54:13.138Z,6.70
2023-04-08T03:56:40.555Z,6.70
2023-04-08T03:59:07.622Z,6.40
2023-04-08T04:01:34.627Z,6.40
2023-04-08T04:04:01.981Z,6.50
2023-04-08T04:06:29.149Z,6.40
2023-04-08T04:08:56.235Z,6.60
2023-04-08T04:11:23.320Z,6.40
2023-04-08T04:13:50.462Z,6.20
2023-04-08T04:16:17.626Z,6.10
2023-04-08T04:18:44.771Z,6.00
2023-04-08T04:21:11.874Z,6.10
2023-04-08T04:23:38.867Z,6.10
2023-04-08T04:26:10.218Z,5.70
2023-04-08T04:28:38.142Z,5.90
2023-04-08T04:31:05.434Z,6.00
2023-04-08T04:33:32.599Z,6.00
2023-04-08T04:35:59.688Z,5.80
2023-04-08T04:38:27.205Z,5.50
2023-04-08T04:40:54.245Z,5.60
2023-04-08T04:43:21.266Z,5.80
2023-04-08T04:45:48.436Z,5.80
2023-04-08T04:48:15.631Z,5.80
2023-04-08T04:50:42.732Z,5.90
2023-04-08T04:53:09.696Z,6.00
2023-04-08T04:55:39.162Z,5.70
2023-04-08T04:58:06.752Z,5.40
2023-04-08T05:00:33.779Z,5.60
2023-04-08T05:03:00.898Z,5.50
2023-04-08T05:05:28.135Z,5.70
2023-04-08T05:07:55.438Z,5.60
2023-04-08T05:10:22.553Z,5.70
2023-04-08T05:12:49.664Z,5.50
2023-04-08T05:15:16.992Z,5.30
2023-04-08T05:17:44.014Z,5.20
2023-04-08T05:20:11.519Z,5.50
2023-04-08T05:22:38.686Z,5.60
2023-04-08T05:25:06.650Z,5.10
2023-04-08T05:27:33.816Z,5.00
2023-04-08T05:30:00.969Z,4.80
2023-04-08T05:32:29.731Z,4.80
2023-04-08T05:34:56.859Z,4.90
2023-04-08T05:37:23.882Z,4.90
2023-04-08T05:39:51.005Z,5.10
2023-04-08T05:42:18.050Z,4.70
2023-04-08T05:44:45.326Z,5.20
2023-04-08T05:47:13.177Z,5.30
2023-04-08T05:49:40.405Z,5.40
2023-04-08T05:52:07.671Z,5.00
2023-04-08T05:54:34.824Z,5.20
2023-04-08T05:57:01.833Z,5.50
2023-04-08T05:59:29.103Z,5.20
2023-04-08T06:01:57.382Z,5.50
2023-04-08T06:04:24.825Z,5.80
2023-04-08T06:06:52.034Z,5.60
2023-04-08T06:09:19.176Z,5.40
2023-04-08T06:11:47.360Z,5.30
2023-04-08T06:14:14.671Z,5.20
2023-04-08T06:16:42.029Z,5.30
2023-04-08T06:19:09.269Z,5.30
2023-04-08T06:21:36.441Z,5.30
2023-04-08T06:24:03.727Z,5.50
2023-04-08T06:26:30.958Z,5.60
2023-04-08T06:28:58.081Z,5.50
2023-04-08T06:31:25.217Z,5.50
2023-04-08T06:33:56.114Z,5.50
2023-04-08T06:36:23.432Z,5.80
2023-04-08T06:38:53.659Z,5.60
2023-04-08T06:41:20.784Z,5.80
2023-04-08T06:43:49.491Z,5.80
2023-04-08T06:46:16.675Z,5.80
2023-04-08T06:48:43.789Z,5.50
2023-04-08T06:51:11.655Z,5.30
2023-04-08T06:53:38.900Z,5.30
2023-04-08T06:56:06.939Z,5.20
2023-04-08T06:58:33.964Z,5.80
2023-04-08T07:01:01.649Z,6.00
2023-04-08T07:03:28.888Z,5.70
2023-04-08T07:05:56.164Z,5.80
2023-04-08T07:08:23.211Z,5.60
2023-04-08T07:10:52.762Z,5.70
2023-04-08T07:13:20.006Z,5.60
2023-04-08T07:15:47.061Z,5.70
2023-04-08T07:18:14.086Z,6.00
2023-04-08T07:20:42.184Z,6.20
2023-04-08T07:23:09.842Z,6.40
2023-04-08T07:25:36.988Z,6.50
2023-04-08T07:28:04.214Z,6.40
2023-04-08T07:30:31.254Z,6.40
2023-04-08T07:33:00.800Z,6.20
2023-04-08T07:35:28.649Z,6.10
2023-04-08T07:37:56.090Z,6.20
2023-04-08T07:40:23.476Z,6.40
2023-04-08T07:42:50.518Z,6.50
2023-04-08T07:45:17.671Z,6.60
2023-04-08T07:47:44.933Z,6.30
2023-04-08T07:50:12.212Z,6.10
2023-04-08T07:52:39.342Z,6.40
2023-04-08T07:55:07.026Z,6.60
2023-04-08T07:57:34.073Z,6.40
2023-04-08T08:00:01.259Z,6.50
2023-04-08T08:02:28.471Z,6.70
2023-04-08T08:04:55.978Z,6.60
2023-04-08T08:07:23.003Z,6.60
2023-04-08T08:09:50.049Z,6.50
2023-04-08T08:12:17.118Z,6.70
2023-04-08T08:14:44.291Z,6.70
2023-04-08T08:17:11.484Z,6.70
2023-04-08T08:19:38.556Z,6.40
2023-04-08T08:22:05.811Z,6.30
2023-04-08T08:24:32.846Z,6.10
2023-04-08T08:27:00.017Z,6.20
2023-04-08T08:29:27.162Z,6.30
2023-04-08T08:31:54.211Z,6.30
2023-04-08T08:34:21.250Z,6.40
2023-04-08T08:36:48.368Z,6.10
2023-04-08T08:39:15.513Z,6.10
2023-04-08T08:41:42.592Z,6.10
2023-04-08T08:44:10.661Z,5.90
2023-04-08T08:46:43.373Z,5.90
2023-04-08T08:49:11.827Z,6.20
2023-04-08T08:51:40.719Z,6.20
2023-04-08T08:54:08.585Z,6.30
2023-04-08T08:56:35.927Z,6.30
2023-04-08T08:59:03.248Z,6.50
2023-04-08T09:01:33.996Z,6.50
2023-04-08T09:04:09.552Z,6.60
2023-04-08T09:06:37.983Z,6.70
2023-04-08T09:09:10.307Z,6.80
2023-04-08T09:11:47.780Z,7.00
2023-04-08T09:14:25.156Z,7.10
2023-04-08T09:16:53.007Z,7.20
2023-04-08T09:19:20.487Z,7.20
2023-04-08T09:22:07.990Z,7.20
2023-04-08T09:24:37.467Z,7.20
2023-04-08T09:27:08.344Z,7.10
2023-04-08T09:29:38.298Z,7.20
2023-04-08T09:32:07.013Z,7.30
2023-04-08T09:34:34.592Z,7.40
2023-04-08T09:37:02.087Z,7.40
2023-04-08T09:39:29.150Z,7.50
2023-04-08T09:42:01.479Z,7.50
2023-04-08T09:44:30.593Z,7.50
2023-04-08T09:47:12.802Z,7.50
2023-04-08T09:49:51.603Z,7.30
2023-04-08T09:52:30.726Z,7.20
2023-04-08T09:55:06.710Z,7.10
2023-04-08T09:57:55.928Z,7.20
2023-04-08T10:00:32.401Z,7.40
2023-04-08T10:03:16.356Z,7.30
2023-04-08T10:05:44.942Z,7.30
2023-04-08T10:08:13.073Z,7.40
2023-04-08T10:10:41.749Z,7.40
2023-04-08T10:13:09.325Z,7.40
2023-04-08T10:15:38.869Z,7.40
2023-04-08T10:18:06.369Z,7.40
2023-04-08T10:20:36.565Z,7.40
2023-04-08T10:23:05.156Z,7.50
2023-04-08T10:25:36.104Z,7.60
2023-04-08T10:28:24.445Z,7.60
2023-04-08T10:30:53.167Z,7.80
2023-04-08T10:33:39.998Z,7.90
2023-04-08T10:36:10.034Z,8.00
2023-04-08T10:38:42.584Z,8.00
2023-04-08T10:41:21.766Z,7.80
2023-04-08T10:43:49.277Z,7.80
2023-04-08T10:46:17.327Z,7.70
2023-04-08T10:48:45.016Z,7.70
2023-04-08T10:51:12.250Z,7.60
2023-04-08T10:53:39.807Z,7.70
2023-04-08T10:56:08.197Z,7.80
2023-04-08T10:58:36.909Z,7.80
2023-04-08T11:01:06.005Z,7.80
2023-04-08T11:03:37.643Z,7.80
2023-04-08T11:06:05.988Z,7.80
2023-04-08T11:08:34.618Z,7.80
2023-04-08T11:11:02.283Z,7.80
2023-04-08T11:13:30.294Z,7.80
2023-04-08T11:15:59.526Z,7.80
2023-04-08T11:18:27.400Z,7.80
2023-04-08T11:20:54.654Z,7.80
2023-04-08T11:23:23.044Z,7.60
2023-04-08T11:25:50.981Z,7.70
2023-04-08T11:28:18.316Z,7.80
2023-04-08T11:30:45.560Z,7.70
2023-04-08T11:33:13.943Z,7.70
2023-04-08T11:35:42.174Z,7.80
2023-04-08T11:38:10.412Z,7.80
2023-04-08T11:40:37.925Z,7.90
2023-04-08T11:43:12.888Z,7.90
2023-04-08T11:45:41.244Z,7.80
2023-04-08T11:48:16.507Z,7.90
2023-04-08T11:50:45.133Z,7.90
2023-04-08T11:53:19.772Z,7.90
2023-04-08T11:55:49.189Z,7.90
2023-04-08T11:58:16.473Z,8.00
2023-04-08T12:00:44.321Z,8.20
2023-04-08T12:03:11.788Z,8.30
2023-04-08T12:05:39.398Z,8.50
2023-04-08T12:08:06.701Z,8.80
2023-04-08T12:10:33.753Z,8.90
2023-04-08T12:13:01.116Z,8.90
2023-04-08T12:15:28.209Z,8.80
2023-04-08T12:17:55.856Z,8.40
2023-04-08T12:20:23.165Z,8.30
2023-04-08T12:22:50.351Z,8.00
2023-04-08T12:25:17.428Z,8.00
2023-04-08T12:27:44.552Z,8.00
2023-04-08T12:30:12.114Z,7.90
2023-04-08T12:32:39.150Z,8.00
2023-04-08T12:35:06.338Z,8.00
2023-04-08T12:37:33.549Z,8.00
2023-04-08T12:40:00.802Z,8.10
2023-04-08T12:42:28.122Z,8.20
2023-04-08T12:44:55.225Z,8.30
2023-04-08T12:47:24.300Z,8.50
2023-04-08T12:49:52.711Z,8.60
2023-04-08T12:52:19.861Z,8.70
2023-04-08T12:54:47.035Z,8.80
2023-04-08T12:57:14.075Z,9.00
2023-04-08T12:59:41.194Z,9.00
2023-04-08T13:02:08.364Z,9.00
2023-04-08T13:04:35.740Z,9.00
2023-04-08T13:07:04.399Z,9.00
2023-04-08T13:09:31.543Z,8.90
2023-04-08T13:11:58.757Z,8.90
2023-04-08T13:14:26.267Z,8.80
2023-04-08T13:16:53.287Z,9.00
2023-04-08T13:19:20.344Z,9.30
2023-04-08T13:21:47.396Z,9.30
2023-04-08T13:24:14.395Z,9.40
2023-04-08T13:26:41.533Z,9.30
2023-04-08T13:29:08.547Z,9.10
2023-04-08T13:31:35.600Z,8.90
2023-04-08T13:34:02.525Z,9.00
2023-04-08T13:36:29.665Z,8.90
2023-04-08T13:38:56.870Z,8.80
2023-04-08T13:41:25.521Z,8.70
2023-04-08T13:43:52.637Z,8.60
2023-04-08T13:46:19.731Z,8.70
2023-04-08T13:48:46.906Z,8.70
2023-04-08T13:51:13.994Z,8.80
2023-04-08T13:53:41.033Z,8.90
2023-04-08T13:56:08.304Z,9.00
2023-04-08T13:58:35.381Z,9.00
2023-04-08T14:01:03.001Z,9.00
2023-04-08T14:03:30.032Z,8.90
2023-04-08T14:05:59.085Z,8.80
2023-04-08T14:08:27.351Z,8.90
2023-04-08T14:10:56.884Z,8.80
2023-04-08T14:13:24.258Z,8.90
2023-04-08T14:15:52.315Z,9.00
2023-04-08T14:18:19.587Z,9.10
2023-04-08T14:20:46.767Z,9.20
2023-04-08T14:23:13.766Z,9.30
2023-04-08T14:25:41.099Z,9.40
2023-04-08T14:28:08.236Z,9.30
2023-04-08T14:30:38.556Z,9.30
2023-04-08T14:33:06.328Z,9.20
2023-04-08T14:35:33.699Z,9.10
2023-04-08T14:38:01.308Z,9.00
2023-04-08T14:40:28.486Z,9.00
2023-04-08T14:42:55.481Z,8.90
2023-04-08T14:45:22.567Z,8.90
2023-04-08T14:47:49.666Z,8.90
2023-04-08T14:50:16.997Z,8.70
2023-04-08T14:52:45.439Z,8.70
2023-04-08T14:55:12.655Z,8.70
2023-04-08T14:57:39.773Z,8.60
2023-04-08T15:00:07.712Z,8.60
2023-04-08T15:02:34.842Z,8.50
2023-04-08T15:05:01.842Z,8.60
2023-04-08T15:07:28.960Z,8.60
2023-04-08T15:09:56.948Z,8.50
2023-04-08T15:12:24.568Z,8.60
2023-04-08T15:14:51.670Z,8.60
2023-04-08T15:17:18.826Z,8.70
2023-04-08T15:19:46.418Z,8.70
2023-04-08T15:22:13.501Z,8.80
2023-04-08T15:24:40.692Z,8.80
2023-04-08T15:27:08.073Z,8.80
2023-04-08T15:29:35.168Z,8.80
2023-04-08T15:32:02.291Z,8.90
2023-04-08T15:34:29.333Z,8.90
2023-04-08T15:36:59.186Z,8.90
2023-04-08T15:39:26.315Z,8.80
2023-04-08T15:41:53.428Z,8.70
2023-04-08T15:44:20.668Z,8.70
2023-04-08T15:46:47.713Z,8.80
2023-04-08T15:49:15.091Z,8.70
2023-04-08T15:51:44.593Z,8.60
2023-04-08T15:54:11.942Z,8.50
2023-04-08T15:56:39.040Z,8.50
2023-04-08T15:59:06.334Z,8.50
2023-04-08T16:01:33.441Z,8.40
2023-04-08T16:04:01.210Z,8.30
2023-04-08T16:06:28.457Z,8.30
2023-04-08T16:08:56.863Z,8.40
2023-04-08T16:11:25.305Z,8.30
2023-04-08T16:13:52.616Z,8.30
2023-04-08T16:16:19.931Z,8.30
2023-04-08T16:18:47.656Z,8.30
2023-04-08T16:21:14.827Z,8.30
2023-04-08T16:23:42.087Z,8.30
2023-04-08T16:26:09.226Z,8.30
2023-04-08T16:28:37.249Z,8.30
2023-04-08T16:31:04.335Z,8.30
2023-04-08T16:33:32.136Z,8.30
2023-04-08T16:36:00.329Z,8.30
2023-04-08T16:38:27.823Z,8.30
2023-04-08T16:40:58.506Z,8.30
2023-04-08T16:43:26.510Z,8.40
2023-04-08T16:45:53.948Z,8.40
2023-04-08T16:48:21.204Z,8.40
2023-04-08T16:50:48.331Z,8.40
2023-04-08T16:53:15.557Z,8.40
2023-04-08T16:55:42.634Z,8.40
2023-04-08T16:58:09.622Z,8.40
2023-04-08T17:00:36.719Z,8.40
2023-04-08T17:03:04.151Z,8.20
2023-04-08T17:05:31.179Z,8.20
2023-04-08T17:07:58.576Z,8.20
2023-04-08T17:10:25.713Z,8.20
2023-04-08T17:12:53.280Z,8.20
2023-04-08T17:15:20.484Z,8.30
2023-04-08T17:17:48.063Z,8.20
2023-04-08T17:20:16.196Z,8.20
2023-04-08T17:22:43.357Z,8.10
2023-04-08T17:25:10.811Z,8.10
2023-04-08T17:27:37.940Z,8.00
2023-04-08T17:30:07.365Z,8.00
2023-04-08T17:32:34.684Z,8.00
2023-04-08T17:35:02.948Z,8.00
2023-04-08T17:37:29.897Z,8.00
2023-04-08T17:39:57.069Z,7.90
2023-04-08T17:42:24.408Z,7.90
2023-04-08T17:44:52.880Z,7.90
2023-04-08T17:47:21.112Z,7.90
2023-04-08T17:49:48.201Z,7.80
2023-04-08T17:52:15.188Z,7.80
2023-04-08T17:54:42.298Z,7.80
2023-04-08T17:57:09.361Z,7.80
2023-04-08T17:59:36.484Z,7.80
2023-04-08T18:02:03.726Z,7.80
2023-04-08T18:04:30.905Z,7.70
2023-04-08T18:07:00.988Z,7.70
2023-04-08T18:09:28.037Z,7.80
2023-04-08T18:11:55.004Z,7.80
2023-04-08T18:14:22.005Z,7.80
2023-04-08T18:16:49.026Z,7.80
2023-04-08T18:19:16.384Z,7.80
2023-04-08T18:21:43.945Z,7.60
2023-04-08T18:24:11.171Z,7.70
2023-04-08T18:26:38.178Z,7.70
2023-04-08T18:29:05.306Z,7.70
2023-04-08T18:31:32.360Z,7.60
2023-04-08T18:33:59.337Z,7.60
2023-04-08T18:36:26.666Z,7.60
2023-04-08T18:38:53.616Z,7.60
2023-04-08T18:41:21.093Z,7.60
2023-04-08T18:43:48.077Z,7.60
2023-04-08T18:46:15.189Z,7.70
2023-04-08T18:48:42.473Z,7.70
2023-04-08T18:51:09.547Z,7.70
2023-04-08T18:53:36.578Z,7.70
2023-04-08T18:56:03.655Z,7.60
2023-04-08T18:58:32.213Z,7.60
2023-04-08T19:00:59.202Z,7.50
2023-04-08T19:03:27.296Z,7.50
2023-04-08T19:05:54.446Z,7.50
2023-04-08T19:08:21.486Z,7.50
2023-04-08T19:10:48.525Z,7.50
2023-04-08T19:13:15.489Z,7.40
2023-04-08T19:15:43.216Z,7.40
2023-04-08T19:18:10.318Z,7.30
2023-04-08T19:20:37.954Z,7.30
2023-04-08T19:23:05.892Z,7.40
2023-04-08T19:25:33.496Z,7.40
2023-04-08T19:28:00.592Z,7.30
2023-04-08T19:30:27.647Z,7.30
2023-04-08T19:32:54.685Z,7.40
2023-04-08T19:35:21.881Z,7.30
2023-04-08T19:37:48.931Z,7.30
2023-04-08T19:40:16.296Z,7.30
2023-04-08T19:42:44.606Z,7.30
2023-04-08T19:45:11.789Z,7.30
2023-04-08T19:47:43.296Z,7.40
2023-04-08T19:50:11.472Z,7.40
2023-04-08T19:52:41.997Z,7.40
2023-04-08T19:55:10.565Z,7.30
2023-04-08T19:57:37.674Z,7.40
2023-04-08T20:00:05.553Z,7.40
2023-04-08T20:02:33.614Z,7.30
2023-04-08T20:05:02.018Z,7.30
2023-04-08T20:07:29.058Z,7.30
2023-04-08T20:09:56.149Z,7.30
2023-04-08T20:12:23.128Z,7.20
2023-04-08T20:14:50.104Z,7.20
2023-04-08T20:17:18.098Z,7.20
2023-04-08T20:19:45.338Z,7.20
2023-04-08T20:22:12.738Z,7.20
2023-04-08T20:24:39.797Z,7.30
2023-04-08T20:27:06.965Z,7.30
2023-04-08T20:29:34.644Z,7.20
2023-04-08T20:32:01.730Z,7.10
2023-04-08T20:34:28.762Z,7.10
2023-04-08T20:36:56.470Z,7.10
2023-04-08T20:39:29.424Z,7.10
2023-04-08T20:41:59.791Z,7.20
2023-04-08T20:44:27.670Z,7.20
2023-04-08T20:46:55.136Z,7.30
2023-04-08T20:49:22.184Z,7.20
2023-04-08T20:51:49.211Z,7.20
2023-04-08T20:54:16.288Z,7.20
2023-04-08T20:56:43.338Z,7.20
2023-04-08T20:59:10.552Z,7.10
2023-04-08T21:01:37.823Z,7.20
2023-04-08T21:04:05.462Z,7.20
2023-04-08T21:06:32.613Z,7.30
2023-04-08T21:08:59.719Z,7.20
2023-04-08T21:11:28.523Z,7.10
2023-04-08T21:13:56.488Z,7.10
2023-04-08T21:16:23.536Z,7.10
2023-04-08T21:18:50.673Z,7.10
2023-04-08T21:21:17.872Z,7.10
2023-04-08T21:23:45.005Z,7.10
2023-04-08T21:26:13.557Z,7.10
2023-04-08T21:28:40.827Z,7.10
2023-04-08T21:31:11.862Z,7.00
2023-04-08T21:33:39.362Z,7.00
2023-04-08T21:36:07.333Z,7.00
2023-04-08T21:38:35.104Z,7.00
2023-04-08T21:41:02.182Z,7.00
2023-04-08T21:43:29.436Z,7.10
2023-04-08T21:45:56.767Z,7.10
2023-04-08T21:48:24.196Z,7.10
2023-04-08T21:50:51.426Z,6.90
2023-04-08T21:53:18.528Z,6.80
2023-04-08T21:55:46.038Z,7.00
2023-04-08T21:58:13.243Z,6.90
2023-04-08T22:00:41.412Z,7.00
2023-04-08T22:03:08.687Z,7.00
2023-04-08T22:05:36.113Z,7.00
2023-04-08T22:08:04.193Z,7.00
2023-04-08T22:10:31.494Z,7.00
2023-04-08T22:12:58.734Z,6.90
2023-04-08T22:15:25.992Z,6.80
2023-04-08T22:17:53.231Z,6.70
2023-04-08T22:20:20.557Z,6.80
2023-04-08T22:22:47.698Z,6.90
2023-04-08T22:25:14.877Z,6.90
2023-04-08T22:27:42.210Z,6.90
2023-04-08T22:30:09.684Z,6.90
2023-04-08T22:32:36.851Z,6.80
2023-04-08T22:35:04.096Z,6.80
2023-04-08T22:37:31.994Z,6.90
2023-04-08T22:40:03.718Z,6.80
2023-04-08T22:42:30.792Z,6.70
2023-04-08T22:44:57.792Z,6.60
2023-04-08T22:47:24.905Z,6.60
2023-04-08T22:49:52.027Z,6.50
2023-04-08T22:52:19.085Z,6.60
2023-04-08T22:54:46.171Z,6.70
2023-04-08T22:57:13.212Z,6.80
2023-04-08T22:59:40.343Z,6.80
2023-04-08T23:02:07.420Z,6.70
2023-04-08T23:04:34.531Z,6.40
2023-04-08T23:07:01.572Z,6.30
2023-04-08T23:09:28.632Z,6.40
2023-04-08T23:11:56.166Z,6.50
2023-04-08T23:14:23.207Z,6.60
2023-04-08T23:16:50.396Z,6.60
2023-04-08T23:19:17.337Z,6.50
2023-04-08T23:21:44.457Z,6.30
2023-04-08T23:24:11.564Z,6.30
2023-04-08T23:26:38.623Z,6.30
2023-04-08T23:29:05.655Z,6.30
2023-04-08T23:31:32.763Z,6.50
2023-04-08T23:33:59.901Z,6.60
2023-04-08T23:36:27.761Z,6.40
2023-04-08T23:38:55.000Z,6.50
2023-04-08T23:41:22.091Z,6.60
2023-04-08T23:43:49.326Z,6.60
2023-04-08T23:46:16.819Z,6.40
2023-04-08T23:48:43.913Z,6.20
2023-04-08T23:51:11.877Z,6.20
2023-04-08T23:53:39.136Z,6.30
2023-04-08T23:56:07.269Z,6.50
2023-04-08T23:58:34.726Z,6.40
